createdAt,value
2022-10-09T00:00:27.148Z,48.84
2022-10-09T00:03:19.912Z,48.77
2022-10-09T00:05:52.078Z,48.77
2022-10-09T00:08:24.261Z,48.87
2022-10-09T00:10:56.469Z,49.00
2022-10-09T00:13:28.892Z,48.98
2022-10-09T00:15:59.377Z,48.86
2022-10-09T00:18:31.637Z,48.92
2022-10-09T00:21:04.082Z,49.02
2022-10-09T00:23:34.691Z,49.04
2022-10-09T00:26:07.211Z,49.14
2022-10-09T00:28:39.449Z,49.28
2022-10-09T00:31:12.674Z,49.17
2022-10-09T00:33:45.107Z,49.19
2022-10-09T00:36:19.286Z,49.25
2022-10-09T00:38:51.856Z,49.24
2022-10-09T00:41:23.190Z,49.41
2022-10-09T00:43:57.320Z,49.43
2022-10-09T00:46:35.591Z,49.57
2022-10-09T00:49:17.280Z,49.68
2022-10-09T00:51:50.588Z,49.71
2022-10-09T00:54:24.561Z,49.71
2022-10-09T00:56:57.547Z,49.73
2022-10-09T00:59:30.144Z,49.71
2022-10-09T01:02:00.655Z,49.81
2022-10-09T01:04:33.036Z,49.82
2022-10-09T01:07:18.801Z,49.89
2022-10-09T01:09:56.002Z,49.86
2022-10-09T01:12:35.232Z,49.93
2022-10-09T01:15:13.455Z,50.03
2022-10-09T01:17:53.063Z,50.07
2022-10-09T01:20:37.630Z,50.01
2022-10-09T01:23:27.263Z,50.16
2022-10-09T01:26:10.648Z,50.12
2022-10-09T01:28:44.428Z,50.18
2022-10-09T01:31:17.783Z,50.16
2022-10-09T01:33:50.219Z,50.17
2022-10-09T01:36:23.141Z,50.23
2022-10-09T01:38:55.923Z,50.24
2022-10-09T01:41:28.159Z,50.27
2022-10-09T01:44:00.308Z,50.35
2022-10-09T01:46:33.732Z,50.31
2022-10-09T01:49:13.706Z,50.38
2022-10-09T01:51:59.074Z,50.52
2022-10-09T01:54:36.478Z,50.49
2022-10-09T01:57:09.914Z,50.66
2022-10-09T01:59:43.928Z,50.61
2022-10-09T02:02:16.395Z,50.65
2022-10-09T02:04:50.090Z,50.71
2022-10-09T02:07:22.913Z,50.81
2022-10-09T02:09:55.991Z,50.73
2022-10-09T02:12:30.850Z,50.87
2022-10-09T02:15:03.057Z,50.85
2022-10-09T02:17:38.599Z,50.93
2022-10-09T02:20:15.916Z,50.95
2022-10-09T02:22:49.538Z,50.99
2022-10-09T02:25:22.312Z,51.03
2022-10-09T02:27:52.756Z,51.06
2022-10-09T02:30:25.213Z,51.10
2022-10-09T02:32:55.654Z,51.16
2022-10-09T02:35:27.778Z,51.17
2022-10-09T02:37:59.847Z,51.28
2022-10-09T02:40:31.867Z,51.41
2022-10-09T02:43:04.037Z,51.24
2022-10-09T02:45:36.182Z,51.34
2022-10-09T02:48:08.652Z,51.48
2022-10-09T02:50:40.651Z,51.45
2022-10-09T02:53:12.696Z,51.53
2022-10-09T02:55:44.810Z,51.46
2022-10-09T02:58:16.945Z,51.44
2022-10-09T03:00:52.562Z,51.55
2022-10-09T03:03:24.642Z,51.46
2022-10-09T03:06:04.139Z,51.58
2022-10-09T03:08:36.423Z,51.54
2022-10-09T03:11:08.683Z,51.51
2022-10-09T03:13:41.170Z,51.61
2022-10-09T03:16:15.137Z,51.45
2022-10-09T03:18:47.461Z,51.47
2022-10-09T03:21:21.081Z,51.74
2022-10-09T03:23:53.801Z,51.83
2022-10-09T03:26:27.649Z,51.75
2022-10-09T03:29:00.025Z,51.85
2022-10-09T03:31:51.230Z,51.80
2022-10-09T03:34:24.543Z,51.80
2022-10-09T03:36:57.005Z,51.78
2022-10-09T03:39:29.485Z,51.76
2022-10-09T03:42:01.769Z,51.88
2022-10-09T03:44:34.103Z,51.85
2022-10-09T03:47:06.984Z,51.69
2022-10-09T03:49:39.347Z,51.65
2022-10-09T03:52:11.697Z,51.72
2022-10-09T03:54:44.034Z,51.73
2022-10-09T03:57:16.444Z,51.68
2022-10-09T03:59:48.789Z,51.66
2022-10-09T04:02:21.110Z,51.64
2022-10-09T04:04:53.502Z,51.74
2022-10-09T04:07:25.969Z,51.70
2022-10-09T04:09:58.579Z,51.72
2022-10-09T04:12:30.978Z,51.79
2022-10-09T04:15:04.121Z,51.79
2022-10-09T04:17:36.470Z,51.78
2022-10-09T04:20:10.293Z,51.69
2022-10-09T04:22:42.578Z,51.59
2022-10-09T04:25:14.999Z,51.66
2022-10-09T04:27:47.361Z,51.56
2022-10-09T04:30:19.754Z,51.61
2022-10-09T04:32:52.332Z,51.68
2022-10-09T04:35:23.165Z,51.68
2022-10-09T04:37:55.470Z,51.47
2022-10-09T04:40:27.815Z,51.37
2022-10-09T04:43:00.102Z,51.61
2022-10-09T04:45:32.655Z,51.49
2022-10-09T04:48:05.043Z,51.55
2022-10-09T04:50:37.436Z,51.62
2022-10-09T04:53:09.854Z,51.67
2022-10-09T04:55:43.236Z,51.80
2022-10-09T04:58:16.003Z,51.76
2022-10-09T05:00:46.972Z,51.65
2022-10-09T05:03:19.513Z,51.66
2022-10-09T05:05:51.925Z,51.72
2022-10-09T05:08:24.324Z,51.66
2022-10-09T05:10:56.804Z,51.79
2022-10-09T05:13:29.119Z,51.96
2022-10-09T05:16:03.997Z,52.05
2022-10-09T05:18:36.700Z,52.11
2022-10-09T05:21:09.273Z,52.12
2022-10-09T05:23:41.990Z,52.07
2022-10-09T05:26:17.700Z,52.00
2022-10-09T05:28:50.461Z,51.83
2022-10-09T05:31:22.135Z,51.94
2022-10-09T05:33:54.735Z,52.06
2022-10-09T05:36:27.001Z,51.93
2022-10-09T05:39:01.305Z,52.07
2022-10-09T05:41:33.727Z,52.07
2022-10-09T05:44:06.935Z,52.09
2022-10-09T05:46:39.296Z,52.05
2022-10-09T05:49:13.222Z,52.00
2022-10-09T05:51:45.640Z,52.29
2022-10-09T05:54:19.389Z,52.31
2022-10-09T05:56:51.687Z,52.13
2022-10-09T05:59:23.979Z,52.06
2022-10-09T06:01:56.486Z,52.22
2022-10-09T06:04:29.023Z,52.32
2022-10-09T06:07:01.356Z,52.28
2022-10-09T06:09:33.982Z,52.36
2022-10-09T06:12:06.590Z,52.46
2022-10-09T06:14:38.884Z,52.33
2022-10-09T06:17:11.150Z,52.38
2022-10-09T06:19:43.431Z,52.29
2022-10-09T06:22:15.719Z,52.20
2022-10-09T06:24:48.060Z,52.04
2022-10-09T06:27:20.367Z,51.90
2022-10-09T06:29:53.490Z,52.03
2022-10-09T06:32:25.927Z,52.00
2022-10-09T06:34:58.221Z,51.98
2022-10-09T06:37:30.534Z,51.67
2022-10-09T06:40:02.938Z,51.54
2022-10-09T06:42:35.245Z,51.61
2022-10-09T06:45:09.300Z,51.54
2022-10-09T06:47:41.670Z,51.47
2022-10-09T06:50:14.203Z,51.25
2022-10-09T06:52:46.742Z,51.31
2022-10-09T06:55:19.679Z,51.36
2022-10-09T06:57:50.426Z,51.15
2022-10-09T07:00:22.723Z,51.05
2022-10-09T07:02:55.166Z,50.81
2022-10-09T07:05:27.533Z,50.75
2022-10-09T07:07:59.893Z,50.47
2022-10-09T07:10:32.342Z,50.45
2022-10-09T07:13:04.699Z,50.50
2022-10-09T07:15:37.048Z,50.52
2022-10-09T07:18:09.711Z,50.68
2022-10-09T07:20:42.040Z,50.67
2022-10-09T07:23:14.387Z,50.64
2022-10-09T07:25:46.699Z,50.47
2022-10-09T07:28:19.180Z,50.40
2022-10-09T07:30:51.614Z,50.24
2022-10-09T07:33:24.095Z,50.24
2022-10-09T07:36:00.142Z,50.34
2022-10-09T07:38:32.885Z,50.30
2022-10-09T07:41:04.343Z,50.30
2022-10-09T07:43:37.587Z,49.97
2022-10-09T07:46:13.237Z,50.04
2022-10-09T07:48:46.042Z,49.76
2022-10-09T07:51:19.773Z,49.60
2022-10-09T07:53:52.442Z,49.47
2022-10-09T07:56:23.834Z,49.43
2022-10-09T07:58:57.545Z,49.53
2022-10-09T08:01:30.753Z,49.24
2022-10-09T08:04:04.043Z,49.26
2022-10-09T08:06:36.733Z,49.11
2022-10-09T08:09:09.952Z,49.07
2022-10-09T08:11:42.440Z,49.07
2022-10-09T08:14:19.269Z,48.81
2022-10-09T08:16:51.921Z,48.84
2022-10-09T08:19:22.853Z,48.71
2022-10-09T08:21:55.304Z,48.56
2022-10-09T08:24:27.597Z,48.40
2022-10-09T08:26:59.887Z,48.37
2022-10-09T08:29:35.554Z,48.21
2022-10-09T08:32:10.652Z,48.03
2022-10-09T08:34:43.007Z,48.04
2022-10-09T08:37:15.367Z,48.10
2022-10-09T08:39:47.668Z,48.01
2022-10-09T08:42:28.478Z,47.88
2022-10-09T08:45:00.768Z,48.00
2022-10-09T08:47:39.013Z,47.96
2022-10-09T08:50:15.226Z,47.89
2022-10-09T08:52:52.547Z,47.67
2022-10-09T08:55:27.349Z,47.50
2022-10-09T08:58:05.470Z,47.38
2022-10-09T09:00:41.309Z,47.43
2022-10-09T09:03:31.074Z,47.22
2022-10-09T09:06:09.190Z,46.96
2022-10-09T09:08:50.094Z,46.98
2022-10-09T09:11:27.876Z,46.97
2022-10-09T09:14:13.553Z,46.87
2022-10-09T09:16:51.513Z,46.56
2022-10-09T09:19:55.064Z,46.41
2022-10-09T09:22:28.101Z,46.38
2022-10-09T09:25:01.612Z,46.22
2022-10-09T09:27:36.730Z,46.26
2022-10-09T09:30:18.939Z,45.90
2022-10-09T09:32:58.239Z,45.60
2022-10-09T09:35:37.257Z,45.21
2022-10-09T09:38:09.586Z,44.75
2022-10-09T09:40:46.596Z,44.68
2022-10-09T09:43:21.850Z,44.09
2022-10-09T09:45:57.654Z,44.07
2022-10-09T09:48:36.267Z,44.26
2022-10-09T09:51:27.977Z,43.99
2022-10-09T09:54:04.204Z,43.78
2022-10-09T09:57:07.136Z,43.34
2022-10-09T09:59:37.371Z,42.73
2022-10-09T10:02:18.346Z,42.66
2022-10-09T10:04:59.143Z,42.50
2022-10-09T10:07:33.478Z,42.19
2022-10-09T10:10:08.343Z,42.05
2022-10-09T10:12:45.046Z,41.64
2022-10-09T10:15:23.853Z,41.41
2022-10-09T10:18:02.388Z,41.14
2022-10-09T10:20:44.928Z,40.90
2022-10-09T10:23:33.577Z,40.39
2022-10-09T10:26:13.302Z,39.53
2022-10-09T10:28:50.570Z,39.18
2022-10-09T10:31:33.959Z,39.50
2022-10-09T10:34:08.753Z,39.16
2022-10-09T10:36:41.063Z,39.04
2022-10-09T10:39:18.547Z,38.67
2022-10-09T10:41:52.903Z,38.75
2022-10-09T10:44:38.211Z,38.85
2022-10-09T10:47:14.385Z,38.26
2022-10-09T10:49:46.712Z,37.72
2022-10-09T10:52:31.107Z,37.66
2022-10-09T10:55:14.569Z,37.12
2022-10-09T10:57:52.428Z,36.69
2022-10-09T11:00:26.582Z,36.50
2022-10-09T11:03:07.131Z,36.58
2022-10-09T11:05:46.751Z,36.30
2022-10-09T11:08:32.863Z,35.73
2022-10-09T11:11:10.371Z,35.66
2022-10-09T11:13:49.599Z,35.25
2022-10-09T11:16:34.848Z,35.16
2022-10-09T11:19:22.187Z,34.97
2022-10-09T11:22:03.579Z,34.64
2022-10-09T11:24:52.317Z,34.45
2022-10-09T11:27:27.697Z,34.21
2022-10-09T11:30:03.348Z,33.84
2022-10-09T11:35:17.179Z,33.10
2022-10-09T11:37:55.261Z,33.32
2022-10-09T11:40:30.638Z,32.93
2022-10-09T11:43:08.758Z,32.64
2022-10-09T11:45:44.430Z,32.24
2022-10-09T11:48:22.829Z,32.23
2022-10-09T11:51:02.282Z,31.67
2022-10-09T11:53:37.076Z,31.51
2022-10-09T11:56:20.562Z,31.37
2022-10-09T11:59:01.314Z,31.46
2022-10-09T12:01:35.989Z,31.19
2022-10-09T12:04:20.822Z,30.93
2022-10-09T12:07:01.979Z,30.60
2022-10-09T12:09:37.203Z,30.09
2022-10-09T12:12:21.099Z,30.34
2022-10-09T12:14:54.567Z,30.45
2022-10-09T12:17:38.567Z,30.28
2022-10-09T12:20:18.796Z,29.92
2022-10-09T12:23:14.252Z,29.46
2022-10-09T12:25:48.841Z,29.39
2022-10-09T12:28:29.569Z,29.11
2022-10-09T12:31:04.310Z,28.86
2022-10-09T12:33:41.820Z,28.78
2022-10-09T12:36:17.282Z,28.85
2022-10-09T12:38:49.623Z,29.14
2022-10-09T12:41:25.289Z,28.72
2022-10-09T12:43:58.366Z,28.53
2022-10-09T12:46:32.794Z,28.75
2022-10-09T12:49:08.913Z,28.49
2022-10-09T12:51:41.359Z,28.15
2022-10-09T12:54:15.563Z,28.05
2022-10-09T12:56:48.194Z,27.90
2022-10-09T12:59:21.303Z,27.84
2022-10-09T13:01:56.054Z,27.86
2022-10-09T13:04:31.211Z,27.64
2022-10-09T13:07:07.496Z,27.72
2022-10-09T13:09:41.493Z,27.62
2022-10-09T13:12:21.014Z,27.52
2022-10-09T13:14:58.221Z,27.32
2022-10-09T13:17:35.313Z,27.27
2022-10-09T13:20:27.249Z,27.14
2022-10-09T13:23:01.768Z,27.05
2022-10-09T13:25:37.210Z,27.30
2022-10-09T13:28:11.472Z,26.74
2022-10-09T13:30:43.911Z,26.93
2022-10-09T13:33:17.962Z,26.52
2022-10-09T13:35:50.281Z,26.81
2022-10-09T13:38:23.732Z,26.47
2022-10-09T13:40:56.604Z,26.26
2022-10-09T13:43:31.163Z,26.49
2022-10-09T13:46:03.624Z,26.49
2022-10-09T13:48:37.841Z,26.06
2022-10-09T13:51:10.455Z,25.99
2022-10-09T13:53:42.757Z,26.23
2022-10-09T13:56:15.490Z,25.76
2022-10-09T13:58:47.897Z,25.51
2022-10-09T14:01:20.496Z,25.83
2022-10-09T14:03:52.837Z,25.68
2022-10-09T14:06:25.219Z,25.58
2022-10-09T14:08:58.254Z,25.58
2022-10-09T14:11:30.588Z,25.67
2022-10-09T14:14:03.151Z,25.64
2022-10-09T14:16:35.574Z,25.53
2022-10-09T14:19:08.582Z,25.63
2022-10-09T14:21:40.991Z,25.56
2022-10-09T14:24:14.602Z,25.70
2022-10-09T14:26:51.359Z,25.79
2022-10-09T14:29:24.083Z,25.74
2022-10-09T14:31:56.477Z,25.92
2022-10-09T14:34:28.852Z,25.78
2022-10-09T14:37:01.885Z,26.02
2022-10-09T14:39:37.765Z,25.97
2022-10-09T14:42:10.241Z,26.08
2022-10-09T14:44:42.919Z,26.25
2022-10-09T14:47:15.324Z,26.38
2022-10-09T14:49:47.723Z,26.61
2022-10-09T14:52:20.250Z,26.81
2022-10-09T14:54:52.667Z,26.86
2022-10-09T14:57:25.146Z,26.98
2022-10-09T14:59:57.599Z,27.13
2022-10-09T15:02:29.978Z,27.28
2022-10-09T15:05:02.372Z,27.28
2022-10-09T15:07:34.979Z,27.36
2022-10-09T15:10:08.269Z,27.54
2022-10-09T15:12:41.171Z,27.51
2022-10-09T15:15:13.952Z,27.58
2022-10-09T15:17:46.468Z,27.73
2022-10-09T15:20:19.064Z,27.90
2022-10-09T15:22:51.748Z,27.92
2022-10-09T15:25:25.483Z,28.06
2022-10-09T15:27:58.006Z,28.23
2022-10-09T15:30:30.851Z,28.28
2022-10-09T15:33:05.307Z,28.40
2022-10-09T15:35:37.730Z,28.50
2022-10-09T15:38:11.385Z,28.62
2022-10-09T15:40:48.001Z,28.81
2022-10-09T15:43:22.617Z,28.83
2022-10-09T15:45:55.587Z,28.96
2022-10-09T15:48:27.995Z,29.08
2022-10-09T15:51:00.328Z,29.05
2022-10-09T15:53:32.659Z,28.92
2022-10-09T15:56:06.464Z,29.15
2022-10-09T15:58:38.975Z,29.42
2022-10-09T16:01:12.936Z,29.50
2022-10-09T16:03:45.907Z,29.83
2022-10-09T16:06:19.906Z,29.90
2022-10-09T16:08:52.806Z,29.90
2022-10-09T16:11:26.599Z,30.07
2022-10-09T16:13:59.872Z,30.08
2022-10-09T16:16:32.295Z,30.41
2022-10-09T16:19:05.328Z,30.63
2022-10-09T16:21:37.767Z,30.73
2022-10-09T16:24:10.432Z,30.70
2022-10-09T16:26:42.759Z,30.88
2022-10-09T16:29:13.470Z,31.14
2022-10-09T16:31:45.877Z,31.44
2022-10-09T16:34:18.311Z,31.50
2022-10-09T16:36:50.730Z,31.47
2022-10-09T16:39:23.920Z,31.68
2022-10-09T16:42:00.597Z,31.60
2022-10-09T16:44:33.061Z,32.02
2022-10-09T16:47:05.391Z,31.85
2022-10-09T16:49:36.109Z,31.95
2022-10-09T16:52:08.422Z,32.13
2022-10-09T16:54:40.722Z,32.08
2022-10-09T16:57:11.557Z,32.14
2022-10-09T16:59:44.008Z,32.28
2022-10-09T17:02:15.101Z,32.25
2022-10-09T17:04:47.692Z,32.20
2022-10-09T17:07:23.282Z,32.46
2022-10-09T17:09:55.890Z,32.40
2022-10-09T17:12:26.572Z,32.45
2022-10-09T17:14:58.971Z,32.65
2022-10-09T17:17:31.487Z,32.67
2022-10-09T17:20:02.143Z,32.74
2022-10-09T17:22:34.167Z,32.70
2022-10-09T17:25:07.406Z,32.86
2022-10-09T17:27:39.734Z,32.91
2022-10-09T17:30:14.128Z,33.01
2022-10-09T17:32:46.806Z,33.09
2022-10-09T17:35:19.896Z,33.17
2022-10-09T17:37:55.095Z,33.25
2022-10-09T17:40:27.405Z,33.50
2022-10-09T17:43:00.675Z,33.35
2022-10-09T17:45:37.119Z,33.41
2022-10-09T17:48:12.232Z,33.45
2022-10-09T17:50:53.583Z,33.40
2022-10-09T17:53:26.671Z,33.64
2022-10-09T17:56:03.373Z,33.74
2022-10-09T17:58:36.139Z,33.73
2022-10-09T18:01:09.967Z,33.73
2022-10-09T18:03:42.685Z,33.69
2022-10-09T18:06:17.444Z,33.89
2022-10-09T18:08:51.587Z,33.86
2022-10-09T18:11:25.792Z,33.95
2022-10-09T18:13:58.794Z,34.04
2022-10-09T18:16:36.212Z,34.19
2022-10-09T18:19:12.653Z,34.18
2022-10-09T18:21:46.666Z,34.15
2022-10-09T18:24:19.231Z,34.24
2022-10-09T18:26:51.687Z,34.42
2022-10-09T18:29:24.147Z,34.39
2022-10-09T18:31:56.695Z,34.42
2022-10-09T18:34:29.088Z,34.54
2022-10-09T18:37:01.538Z,34.47
2022-10-09T18:39:33.922Z,34.52
2022-10-09T18:42:06.799Z,34.62
2022-10-09T18:44:40.428Z,34.69
2022-10-09T18:47:17.088Z,34.79
2022-10-09T18:49:52.544Z,34.78
2022-10-09T18:52:25.229Z,34.88
2022-10-09T18:54:58.106Z,35.00
2022-10-09T18:57:30.625Z,35.14
2022-10-09T19:00:01.307Z,35.30
2022-10-09T19:02:33.798Z,35.47
2022-10-09T19:05:06.611Z,35.57
2022-10-09T19:07:39.018Z,35.67
2022-10-09T19:10:12.217Z,35.87
2022-10-09T19:12:44.659Z,36.02
2022-10-09T19:15:17.080Z,36.19
2022-10-09T19:17:47.891Z,36.40
2022-10-09T19:20:20.578Z,36.43
2022-10-09T19:22:52.917Z,36.66
2022-10-09T19:25:25.340Z,36.68
2022-10-09T19:27:57.661Z,36.93
2022-10-09T19:30:30.533Z,37.08
2022-10-09T19:33:02.957Z,37.07
2022-10-09T19:35:35.279Z,37.35
2022-10-09T19:38:07.728Z,37.43
2022-10-09T19:40:40.061Z,37.49
2022-10-09T19:43:12.768Z,37.64
2022-10-09T19:45:45.375Z,37.71
2022-10-09T19:48:16.125Z,37.96
2022-10-09T19:50:48.793Z,38.03
2022-10-09T19:53:19.473Z,38.22
2022-10-09T19:55:51.834Z,38.43
2022-10-09T19:58:24.142Z,38.27
2022-10-09T20:00:56.544Z,38.44
2022-10-09T20:03:28.956Z,38.73
2022-10-09T20:06:05.345Z,38.65
2022-10-09T20:08:37.993Z,38.64
2022-10-09T20:11:08.834Z,38.85
2022-10-09T20:13:43.112Z,38.89
2022-10-09T20:16:17.738Z,38.84
2022-10-09T20:18:50.164Z,39.04
2022-10-09T20:21:22.503Z,39.01
2022-10-09T20:23:54.852Z,39.05
2022-10-09T20:26:28.116Z,39.20
2022-10-09T20:29:00.560Z,39.29
2022-10-09T20:31:32.937Z,39.20
2022-10-09T20:34:05.270Z,39.34
2022-10-09T20:36:39.215Z,39.38
2022-10-09T20:39:14.081Z,39.46
2022-10-09T20:41:46.699Z,39.41
2022-10-09T20:44:19.095Z,39.49
2022-10-09T20:46:53.238Z,39.55
2022-10-09T20:49:25.684Z,39.49
2022-10-09T20:51:57.990Z,39.64
2022-10-09T20:54:31.535Z,39.63
2022-10-09T20:57:03.975Z,39.66
2022-10-09T20:59:36.400Z,39.63
2022-10-09T21:02:08.789Z,39.82
2022-10-09T21:04:41.135Z,39.70
2022-10-09T21:07:13.452Z,39.77
2022-10-09T21:09:45.844Z,39.70
2022-10-09T21:12:18.254Z,39.85
2022-10-09T21:14:50.636Z,39.86
2022-10-09T21:17:23.055Z,39.87
2022-10-09T21:19:56.558Z,39.89
2022-10-09T21:22:29.089Z,39.90
2022-10-09T21:25:01.483Z,40.09
2022-10-09T21:27:33.928Z,40.00
2022-10-09T21:30:07.953Z,40.15
2022-10-09T21:32:40.255Z,40.21
2022-10-09T21:35:12.671Z,40.27
2022-10-09T21:37:44.981Z,40.20
2022-10-09T21:40:17.616Z,40.29
2022-10-09T21:42:50.020Z,40.47
2022-10-09T21:45:22.574Z,40.50
2022-10-09T21:47:54.862Z,40.46
2022-10-09T21:50:27.817Z,40.61
2022-10-09T21:53:00.364Z,40.58
2022-10-09T21:55:32.757Z,40.70
2022-10-09T21:58:05.092Z,40.84
2022-10-09T22:00:37.832Z,40.90
2022-10-09T22:03:08.454Z,40.91
2022-10-09T22:05:42.976Z,40.97
2022-10-09T22:08:15.234Z,41.08
2022-10-09T22:10:47.554Z,41.17
2022-10-09T22:13:19.948Z,41.11
2022-10-09T22:15:52.247Z,41.14
2022-10-09T22:18:24.553Z,41.30
2022-10-09T22:20:56.821Z,41.36
2022-10-09T22:23:29.134Z,41.32
2022-10-09T22:26:03.394Z,41.51
2022-10-09T22:28:36.009Z,41.52
2022-10-09T22:31:10.498Z,41.49
2022-10-09T22:33:42.947Z,41.56
2022-10-09T22:36:17.268Z,41.54
2022-10-09T22:38:49.656Z,41.64
2022-10-09T22:41:23.462Z,41.72
2022-10-09T22:43:57.238Z,41.83
2022-10-09T22:46:31.489Z,41.86
2022-10-09T22:49:03.740Z,41.95
2022-10-09T22:51:36.566Z,41.96
2022-10-09T22:54:09.227Z,42.01
2022-10-09T22:56:40.471Z,42.09
2022-10-09T22:59:15.177Z,42.13
2022-10-09T23:01:49.485Z,42.19
2022-10-09T23:04:23.124Z,42.11
2022-10-09T23:06:57.871Z,42.18
2022-10-09T23:09:32.046Z,42.22
2022-10-09T23:12:04.439Z,42.27
2022-10-09T23:14:36.858Z,42.25
2022-10-09T23:17:09.183Z,42.26
2022-10-09T23:19:41.716Z,42.27
2022-10-09T23:22:14.034Z,42.26
2022-10-09T23:24:46.567Z,42.31
2022-10-09T23:27:18.986Z,42.25
2022-10-09T23:29:51.498Z,42.32
2022-10-09T23:32:23.803Z,42.20
2022-10-09T23:34:56.046Z,42.27
2022-10-09T23:37:28.626Z,42.33
2022-10-09T23:40:00.953Z,42.32
2022-10-09T23:42:33.354Z,42.36
2022-10-09T23:45:06.855Z,42.35
2022-10-09T23:47:39.185Z,42.40
2022-10-09T23:50:11.944Z,42.39
2022-10-09T23:52:42.602Z,42.39
2022-10-09T23:55:14.935Z,42.42
2022-10-09T23:57:47.252Z,42.35
